Terminal Aerodrome Forecast
Issued by NWS

Home | Current Version | Previous Version | Text Only | Print | Product List | Glossary On
Versions: 1 2 3 4 5 6 7 8 9 10 11 12 13
000
FTUS46 KSGX 300520
TAFSNA
TAF
KSNA 300520Z 3006/3106 VRB04KT P6SM FEW012
      TEMPO 3011/3015 BKN011
     FM301800 22010KT P6SM SKC
     FM310200 VRB04KT P6SM FEW012=

USA.gov is the U.S. government's official web portal to all federal, state and local government web resources and services.